sensor_id;sensor_type;location;lat;lon;timestamp;temperature;humidity
23323;DHT22;11833;52.554;13.554;2023-05-07T00:02:30;10.30;99.90
23323;DHT22;11833;52.554;13.554;2023-05-07T00:04:56;10.20;99.90
23323;DHT22;11833;52.554;13.554;2023-05-07T00:07:22;10.30;99.90
23323;DHT22;11833;52.554;13.554;2023-05-07T00:09:47;10.20;99.90
23323;DHT22;11833;52.554;13.554;2023-05-07T00:12:13;10.20;99.90
23323;DHT22;11833;52.554;13.554;2023-05-07T00:14:39;10.10;99.90
23323;DHT22;11833;52.554;13.554;2023-05-07T00:17:04;10.10;99.90
23323;DHT22;11833;52.554;13.554;2023-05-07T00:19:30;10.00;99.90
23323;DHT22;11833;52.554;13.554;2023-05-07T00:21:57;10.00;99.90
23323;DHT22;11833;52.554;13.554;2023-05-07T00:24:24;10.00;99.90
23323;DHT22;11833;52.554;13.554;2023-05-07T00:26:50;10.10;99.90
23323;DHT22;11833;52.554;13.554;2023-05-07T00:29:15;10.00;99.90
23323;DHT22;11833;52.554;13.554;2023-05-07T00:31:41;10.10;99.90
23323;DHT22;11833;52.554;13.554;2023-05-07T00:34:07;10.10;99.90
23323;DHT22;11833;52.554;13.554;2023-05-07T00:36:33;10.10;99.90
23323;DHT22;11833;52.554;13.554;2023-05-07T00:39:02;10.00;99.90
23323;DHT22;11833;52.554;13.554;2023-05-07T00:41:29;9.90;99.90
23323;DHT22;11833;52.554;13.554;2023-05-07T00:43:56;10.00;99.90
23323;DHT22;11833;52.554;13.554;2023-05-07T00:46:22;10.00;99.90
23323;DHT22;11833;52.554;13.554;2023-05-07T00:48:50;10.10;99.90
23323;DHT22;11833;52.554;13.554;2023-05-07T00:51:17;10.00;99.90
23323;DHT22;11833;52.554;13.554;2023-05-07T00:53:43;10.10;99.90
23323;DHT22;11833;52.554;13.554;2023-05-07T00:56:10;10.10;99.90
23323;DHT22;11833;52.554;13.554;2023-05-07T00:58:36;10.10;99.90
23323;DHT22;11833;52.554;13.554;2023-05-07T01:01:02;10.10;99.90
23323;DHT22;11833;52.554;13.554;2023-05-07T01:03:28;10.20;99.90
23323;DHT22;11833;52.554;13.554;2023-05-07T01:05:54;10.20;99.90
23323;DHT22;11833;52.554;13.554;2023-05-07T01:08:22;10.30;99.90
23323;DHT22;11833;52.554;13.554;2023-05-07T01:10:48;10.10;99.90
23323;DHT22;11833;52.554;13.554;2023-05-07T01:13:14;10.20;99.90
23323;DHT22;11833;52.554;13.554;2023-05-07T01:15:40;10.10;99.90
23323;DHT22;11833;52.554;13.554;2023-05-07T01:18:07;10.00;99.90
23323;DHT22;11833;52.554;13.554;2023-05-07T01:20:33;10.10;99.90
23323;DHT22;11833;52.554;13.554;2023-05-07T01:23:00;10.00;99.90
23323;DHT22;11833;52.554;13.554;2023-05-07T01:25:26;10.00;99.90
23323;DHT22;11833;52.554;13.554;2023-05-07T01:27:52;10.00;99.90
23323;DHT22;11833;52.554;13.554;2023-05-07T01:30:20;10.10;99.90
23323;DHT22;11833;52.554;13.554;2023-05-07T01:33:04;10.20;99.90
23323;DHT22;11833;52.554;13.554;2023-05-07T01:35:39;10.10;99.90
23323;DHT22;11833;52.554;13.554;2023-05-07T01:38:07;10.20;99.90
23323;DHT22;11833;52.554;13.554;2023-05-07T01:40:34;10.20;99.90
23323;DHT22;11833;52.554;13.554;2023-05-07T01:43:01;10.20;99.90
23323;DHT22;11833;52.554;13.554;2023-05-07T01:45:28;10.10;99.90
23323;DHT22;11833;52.554;13.554;2023-05-07T01:47:55;10.10;99.90
23323;DHT22;11833;52.554;13.554;2023-05-07T01:50:23;10.10;99.90
23323;DHT22;11833;52.554;13.554;2023-05-07T01:52:50;10.20;99.90
23323;DHT22;11833;52.554;13.554;2023-05-07T01:55:16;10.20;99.90
23323;DHT22;11833;52.554;13.554;2023-05-07T01:57:42;10.00;99.90
23323;DHT22;11833;52.554;13.554;2023-05-07T02:00:08;10.00;99.90
23323;DHT22;11833;52.554;13.554;2023-05-07T02:02:35;10.00;99.90
23323;DHT22;11833;52.554;13.554;2023-05-07T02:05:01;10.10;99.90
23323;DHT22;11833;52.554;13.554;2023-05-07T02:07:27;10.10;99.90
23323;DHT22;11833;52.554;13.554;2023-05-07T02:09:53;10.10;99.90
23323;DHT22;11833;52.554;13.554;2023-05-07T02:12:21;10.00;99.90
23323;DHT22;11833;52.554;13.554;2023-05-07T02:14:47;10.00;99.90
23323;DHT22;11833;52.554;13.554;2023-05-07T02:17:13;10.00;99.90
23323;DHT22;11833;52.554;13.554;2023-05-07T02:19:38;10.20;99.90
23323;DHT22;11833;52.554;13.554;2023-05-07T02:22:04;10.10;99.90
23323;DHT22;11833;52.554;13.554;2023-05-07T02:24:30;10.10;99.90
23323;DHT22;11833;52.554;13.554;2023-05-07T02:26:56;10.10;99.90
23323;DHT22;11833;52.554;13.554;2023-05-07T02:29:22;10.00;99.90
23323;DHT22;11833;52.554;13.554;2023-05-07T02:31:47;10.00;99.90
23323;DHT22;11833;52.554;13.554;2023-05-07T02:34:18;10.10;99.90
23323;DHT22;11833;52.554;13.554;2023-05-07T02:36:44;10.00;99.90
23323;DHT22;11833;52.554;13.554;2023-05-07T02:39:12;10.10;99.90
23323;DHT22;11833;52.554;13.554;2023-05-07T02:41:39;10.10;99.90
23323;DHT22;11833;52.554;13.554;2023-05-07T02:44:05;10.20;99.90
23323;DHT22;11833;52.554;13.554;2023-05-07T02:46:31;10.10;99.90
23323;DHT22;11833;52.554;13.554;2023-05-07T02:48:56;10.00;99.90
23323;DHT22;11833;52.554;13.554;2023-05-07T02:51:23;10.00;99.90
23323;DHT22;11833;52.554;13.554;2023-05-07T02:53:48;10.10;99.90
23323;DHT22;11833;52.554;13.554;2023-05-07T02:56:14;10.10;99.90
23323;DHT22;11833;52.554;13.554;2023-05-07T02:58:40;10.30;99.90
23323;DHT22;11833;52.554;13.554;2023-05-07T03:01:07;10.30;99.90
23323;DHT22;11833;52.554;13.554;2023-05-07T03:03:34;10.30;99.90
23323;DHT22;11833;52.554;13.554;2023-05-07T03:06:00;10.20;99.90
23323;DHT22;11833;52.554;13.554;2023-05-07T03:08:26;10.10;99.90
23323;DHT22;11833;52.554;13.554;2023-05-07T03:10:52;10.00;99.90
23323;DHT22;11833;52.554;13.554;2023-05-07T03:13:18;10.10;99.90
23323;DHT22;11833;52.554;13.554;2023-05-07T03:15:44;10.10;99.90
23323;DHT22;11833;52.554;13.554;2023-05-07T03:18:10;10.00;99.90
23323;DHT22;11833;52.554;13.554;2023-05-07T03:20:36;10.10;99.90
23323;DHT22;11833;52.554;13.554;2023-05-07T03:23:02;10.10;99.90
23323;DHT22;11833;52.554;13.554;2023-05-07T03:25:28;10.00;99.90
23323;DHT22;11833;52.554;13.554;2023-05-07T03:27:56;10.00;99.90
23323;DHT22;11833;52.554;13.554;2023-05-07T03:30:21;10.00;99.90
23323;DHT22;11833;52.554;13.554;2023-05-07T03:32:47;10.00;99.90
23323;DHT22;11833;52.554;13.554;2023-05-07T03:35:13;10.10;99.90
23323;DHT22;11833;52.554;13.554;2023-05-07T03:37:39;10.10;99.90
23323;DHT22;11833;52.554;13.554;2023-05-07T03:40:05;10.20;99.90
23323;DHT22;11833;52.554;13.554;2023-05-07T03:42:32;10.20;99.90
23323;DHT22;11833;52.554;13.554;2023-05-07T03:44:57;10.20;99.90
23323;DHT22;11833;52.554;13.554;2023-05-07T03:47:23;10.00;99.90
23323;DHT22;11833;52.554;13.554;2023-05-07T03:49:49;9.90;99.90
23323;DHT22;11833;52.554;13.554;2023-05-07T03:52:15;9.90;99.90
23323;DHT22;11833;52.554;13.554;2023-05-07T03:54:41;9.90;99.90
23323;DHT22;11833;52.554;13.554;2023-05-07T03:57:07;9.90;99.90
23323;DHT22;11833;52.554;13.554;2023-05-07T03:59:32;10.00;99.90
23323;DHT22;11833;52.554;13.554;2023-05-07T04:01:58;10.10;99.90
23323;DHT22;11833;52.554;13.554;2023-05-07T04:04:24;10.10;99.90
23323;DHT22;11833;52.554;13.554;2023-05-07T04:06:50;10.00;99.90
23323;DHT22;11833;52.554;13.554;2023-05-07T04:09:15;9.90;99.90
23323;DHT22;11833;52.554;13.554;2023-05-07T04:11:41;9.90;99.90
23323;DHT22;11833;52.554;13.554;2023-05-07T04:14:07;10.00;99.90
23323;DHT22;11833;52.554;13.554;2023-05-07T04:16:35;10.00;99.90
23323;DHT22;11833;52.554;13.554;2023-05-07T04:19:00;10.00;99.90
23323;DHT22;11833;52.554;13.554;2023-05-07T04:21:26;10.00;99.90
23323;DHT22;11833;52.554;13.554;2023-05-07T04:23:52;10.00;99.90
23323;DHT22;11833;52.554;13.554;2023-05-07T04:26:18;10.00;99.90
23323;DHT22;11833;52.554;13.554;2023-05-07T04:28:43;10.00;99.90
23323;DHT22;11833;52.554;13.554;2023-05-07T04:31:09;10.00;99.90
23323;DHT22;11833;52.554;13.554;2023-05-07T04:33:35;10.10;99.90
23323;DHT22;11833;52.554;13.554;2023-05-07T04:36:04;10.20;99.90
23323;DHT22;11833;52.554;13.554;2023-05-07T04:38:31;10.30;99.90
23323;DHT22;11833;52.554;13.554;2023-05-07T04:40:58;10.20;99.90
23323;DHT22;11833;52.554;13.554;2023-05-07T04:43:30;10.10;99.90
23323;DHT22;11833;52.554;13.554;2023-05-07T04:45:56;10.10;99.90
23323;DHT22;11833;52.554;13.554;2023-05-07T04:48:22;10.20;99.90
23323;DHT22;11833;52.554;13.554;2023-05-07T04:50:51;10.20;99.90
23323;DHT22;11833;52.554;13.554;2023-05-07T04:53:17;10.30;99.90
23323;DHT22;11833;52.554;13.554;2023-05-07T04:55:44;10.20;99.90
23323;DHT22;11833;52.554;13.554;2023-05-07T04:58:11;10.30;99.90
23323;DHT22;11833;52.554;13.554;2023-05-07T05:00:37;10.30;99.90
23323;DHT22;11833;52.554;13.554;2023-05-07T05:03:05;10.40;99.90
23323;DHT22;11833;52.554;13.554;2023-05-07T05:05:32;10.40;99.90
23323;DHT22;11833;52.554;13.554;2023-05-07T05:07:57;10.40;99.90
23323;DHT22;11833;52.554;13.554;2023-05-07T05:10:23;10.40;99.90
23323;DHT22;11833;52.554;13.554;2023-05-07T05:12:49;10.40;99.90
23323;DHT22;11833;52.554;13.554;2023-05-07T05:15:15;10.50;99.90
23323;DHT22;11833;52.554;13.554;2023-05-07T05:17:40;10.50;99.90
23323;DHT22;11833;52.554;13.554;2023-05-07T05:20:06;10.40;99.90
23323;DHT22;11833;52.554;13.554;2023-05-07T05:22:33;10.60;99.90
23323;DHT22;11833;52.554;13.554;2023-05-07T05:24:58;10.50;99.90
23323;DHT22;11833;52.554;13.554;2023-05-07T05:27:24;10.40;99.90
23323;DHT22;11833;52.554;13.554;2023-05-07T05:29:50;10.40;99.90
23323;DHT22;11833;52.554;13.554;2023-05-07T05:32:16;10.50;99.90
23323;DHT22;11833;52.554;13.554;2023-05-07T05:34:41;10.50;99.90
23323;DHT22;11833;52.554;13.554;2023-05-07T05:37:07;10.60;99.90
23323;DHT22;11833;52.554;13.554;2023-05-07T05:39:33;10.60;99.90
23323;DHT22;11833;52.554;13.554;2023-05-07T05:41:59;10.70;99.90
23323;DHT22;11833;52.554;13.554;2023-05-07T05:44:25;10.60;99.90
23323;DHT22;11833;52.554;13.554;2023-05-07T05:46:50;10.70;99.90
23323;DHT22;11833;52.554;13.554;2023-05-07T05:49:16;10.70;99.90
23323;DHT22;11833;52.554;13.554;2023-05-07T05:51:43;10.80;99.90
23323;DHT22;11833;52.554;13.554;2023-05-07T05:54:09;10.70;99.90
23323;DHT22;11833;52.554;13.554;2023-05-07T05:56:35;10.70;99.90
23323;DHT22;11833;52.554;13.554;2023-05-07T05:59:01;10.80;99.90
23323;DHT22;11833;52.554;13.554;2023-05-07T06:01:27;10.80;99.90
23323;DHT22;11833;52.554;13.554;2023-05-07T06:03:53;10.90;99.90
23323;DHT22;11833;52.554;13.554;2023-05-07T06:06:18;11.00;99.90
23323;DHT22;11833;52.554;13.554;2023-05-07T06:08:44;11.10;99.90
23323;DHT22;11833;52.554;13.554;2023-05-07T06:11:10;11.10;99.90
23323;DHT22;11833;52.554;13.554;2023-05-07T06:13:36;11.20;99.90
23323;DHT22;11833;52.554;13.554;2023-05-07T06:16:01;11.30;99.90
23323;DHT22;11833;52.554;13.554;2023-05-07T06:18:27;11.40;99.90
23323;DHT22;11833;52.554;13.554;2023-05-07T06:20:54;11.20;99.90
23323;DHT22;11833;52.554;13.554;2023-05-07T06:23:19;11.40;99.90
23323;DHT22;11833;52.554;13.554;2023-05-07T06:25:49;11.50;99.90
23323;DHT22;11833;52.554;13.554;2023-05-07T06:28:18;11.60;99.90
23323;DHT22;11833;52.554;13.554;2023-05-07T06:30:44;11.50;99.90
23323;DHT22;11833;52.554;13.554;2023-05-07T06:33:10;11.70;99.90
23323;DHT22;11833;52.554;13.554;2023-05-07T06:35:36;11.70;99.90
23323;DHT22;11833;52.554;13.554;2023-05-07T06:38:01;11.80;99.90
23323;DHT22;11833;52.554;13.554;2023-05-07T06:40:27;11.80;99.90
23323;DHT22;11833;52.554;13.554;2023-05-07T06:42:53;11.80;99.90
23323;DHT22;11833;52.554;13.554;2023-05-07T06:45:19;11.90;99.90
23323;DHT22;11833;52.554;13.554;2023-05-07T06:47:45;11.90;99.90
23323;DHT22;11833;52.554;13.554;2023-05-07T06:50:11;11.90;99.90
23323;DHT22;11833;52.554;13.554;2023-05-07T06:52:37;12.00;99.90
23323;DHT22;11833;52.554;13.554;2023-05-07T06:55:03;12.10;99.90
23323;DHT22;11833;52.554;13.554;2023-05-07T06:57:29;12.00;99.90
23323;DHT22;11833;52.554;13.554;2023-05-07T06:59:55;12.00;99.90
23323;DHT22;11833;52.554;13.554;2023-05-07T07:02:21;12.00;99.90
23323;DHT22;11833;52.554;13.554;2023-05-07T07:04:47;12.00;99.90
23323;DHT22;11833;52.554;13.554;2023-05-07T07:07:13;11.90;99.90
23323;DHT22;11833;52.554;13.554;2023-05-07T07:09:38;11.90;99.90
23323;DHT22;11833;52.554;13.554;2023-05-07T07:12:04;11.90;99.90
23323;DHT22;11833;52.554;13.554;2023-05-07T07:14:30;12.00;99.90
23323;DHT22;11833;52.554;13.554;2023-05-07T07:16:56;12.10;99.90
23323;DHT22;11833;52.554;13.554;2023-05-07T07:19:21;12.10;99.90
23323;DHT22;11833;52.554;13.554;2023-05-07T07:21:47;12.20;99.90
23323;DHT22;11833;52.554;13.554;2023-05-07T07:24:14;12.50;99.90
23323;DHT22;11833;52.554;13.554;2023-05-07T07:26:44;12.50;99.90
23323;DHT22;11833;52.554;13.554;2023-05-07T07:29:10;12.60;99.90
23323;DHT22;11833;52.554;13.554;2023-05-07T07:31:36;12.70;99.90
23323;DHT22;11833;52.554;13.554;2023-05-07T07:34:01;12.80;99.90
23323;DHT22;11833;52.554;13.554;2023-05-07T07:36:27;12.70;99.90
23323;DHT22;11833;52.554;13.554;2023-05-07T07:38:54;12.80;99.90
23323;DHT22;11833;52.554;13.554;2023-05-07T07:41:19;12.90;99.90
23323;DHT22;11833;52.554;13.554;2023-05-07T07:43:45;12.80;99.90
23323;DHT22;11833;52.554;13.554;2023-05-07T07:46:12;12.80;99.90
23323;DHT22;11833;52.554;13.554;2023-05-07T07:48:38;12.90;99.90
23323;DHT22;11833;52.554;13.554;2023-05-07T07:51:04;12.90;99.90
23323;DHT22;11833;52.554;13.554;2023-05-07T07:53:30;13.00;99.90
23323;DHT22;11833;52.554;13.554;2023-05-07T07:55:56;13.00;99.90
23323;DHT22;11833;52.554;13.554;2023-05-07T07:58:21;12.90;99.90
23323;DHT22;11833;52.554;13.554;2023-05-07T08:00:47;13.10;99.90
23323;DHT22;11833;52.554;13.554;2023-05-07T08:03:14;13.00;99.90
23323;DHT22;11833;52.554;13.554;2023-05-07T08:05:42;13.00;99.90
23323;DHT22;11833;52.554;13.554;2023-05-07T08:08:08;13.10;99.90
23323;DHT22;11833;52.554;13.554;2023-05-07T08:10:35;13.30;99.90
23323;DHT22;11833;52.554;13.554;2023-05-07T08:13:03;13.30;99.90
23323;DHT22;11833;52.554;13.554;2023-05-07T08:15:30;13.30;99.90
23323;DHT22;11833;52.554;13.554;2023-05-07T08:17:55;13.40;99.90
23323;DHT22;11833;52.554;13.554;2023-05-07T08:20:23;13.40;99.90
23323;DHT22;11833;52.554;13.554;2023-05-07T08:22:49;13.50;99.90
23323;DHT22;11833;52.554;13.554;2023-05-07T08:25:15;13.60;99.90
23323;DHT22;11833;52.554;13.554;2023-05-07T08:27:40;13.90;99.90
23323;DHT22;11833;52.554;13.554;2023-05-07T08:30:07;14.10;99.90
23323;DHT22;11833;52.554;13.554;2023-05-07T08:32:33;14.20;99.90
23323;DHT22;11833;52.554;13.554;2023-05-07T08:35:00;14.20;99.90
23323;DHT22;11833;52.554;13.554;2023-05-07T08:37:26;14.10;99.90
23323;DHT22;11833;52.554;13.554;2023-05-07T08:39:51;14.20;99.90
23323;DHT22;11833;52.554;13.554;2023-05-07T08:42:17;14.40;99.90
23323;DHT22;11833;52.554;13.554;2023-05-07T08:44:45;14.40;99.90
23323;DHT22;11833;52.554;13.554;2023-05-07T08:47:12;14.30;99.90
23323;DHT22;11833;52.554;13.554;2023-05-07T08:49:38;14.40;99.90
23323;DHT22;11833;52.554;13.554;2023-05-07T08:52:04;14.70;99.90
23323;DHT22;11833;52.554;13.554;2023-05-07T08:54:30;14.70;97.60
23323;DHT22;11833;52.554;13.554;2023-05-07T08:56:57;14.70;98.30
23323;DHT22;11833;52.554;13.554;2023-05-07T08:59:22;14.70;95.10
23323;DHT22;11833;52.554;13.554;2023-05-07T09:01:48;14.80;99.40
23323;DHT22;11833;52.554;13.554;2023-05-07T09:04:14;14.80;94.70
23323;DHT22;11833;52.554;13.554;2023-05-07T09:06:40;14.90;96.60
23323;DHT22;11833;52.554;13.554;2023-05-07T09:09:07;15.00;95.50
23323;DHT22;11833;52.554;13.554;2023-05-07T09:11:33;15.40;96.20
23323;DHT22;11833;52.554;13.554;2023-05-07T09:13:59;15.60;94.10
23323;DHT22;11833;52.554;13.554;2023-05-07T09:16:29;15.30;92.30
23323;DHT22;11833;52.554;13.554;2023-05-07T09:18:58;16.20;92.80
23323;DHT22;11833;52.554;13.554;2023-05-07T09:21:25;16.90;87.40
23323;DHT22;11833;52.554;13.554;2023-05-07T09:23:53;17.50;83.00
23323;DHT22;11833;52.554;13.554;2023-05-07T09:26:24;18.00;78.70
23323;DHT22;11833;52.554;13.554;2023-05-07T09:28:51;18.10;77.90
23323;DHT22;11833;52.554;13.554;2023-05-07T09:31:18;17.90;77.00
23323;DHT22;11833;52.554;13.554;2023-05-07T09:33:44;17.30;76.40
23323;DHT22;11833;52.554;13.554;2023-05-07T09:36:10;16.90;78.50
23323;DHT22;11833;52.554;13.554;2023-05-07T09:38:37;16.90;81.30
23323;DHT22;11833;52.554;13.554;2023-05-07T09:41:07;16.80;78.10
23323;DHT22;11833;52.554;13.554;2023-05-07T09:43:36;16.80;81.00
23323;DHT22;11833;52.554;13.554;2023-05-07T09:46:14;16.80;79.60
23323;DHT22;11833;52.554;13.554;2023-05-07T09:48:43;16.70;79.80
23323;DHT22;11833;52.554;13.554;2023-05-07T09:51:25;16.90;81.40
23323;DHT22;11833;52.554;13.554;2023-05-07T09:53:58;16.70;79.70
23323;DHT22;11833;52.554;13.554;2023-05-07T09:56:26;16.80;81.40
23323;DHT22;11833;52.554;13.554;2023-05-07T09:58:54;17.00;79.80
23323;DHT22;11833;52.554;13.554;2023-05-07T10:01:21;16.90;79.10
23323;DHT22;11833;52.554;13.554;2023-05-07T10:03:49;16.90;81.60
23323;DHT22;11833;52.554;13.554;2023-05-07T10:06:16;16.90;79.70
23323;DHT22;11833;52.554;13.554;2023-05-07T10:08:43;16.80;79.10
23323;DHT22;11833;52.554;13.554;2023-05-07T10:11:09;16.70;77.90
23323;DHT22;11833;52.554;13.554;2023-05-07T10:13:35;16.60;77.50
23323;DHT22;11833;52.554;13.554;2023-05-07T10:16:06;16.50;77.30
23323;DHT22;11833;52.554;13.554;2023-05-07T10:18:33;16.60;75.30
23323;DHT22;11833;52.554;13.554;2023-05-07T10:21:13;16.60;75.40
23323;DHT22;11833;52.554;13.554;2023-05-07T10:23:45;16.60;74.60
23323;DHT22;11833;52.554;13.554;2023-05-07T10:26:15;16.80;74.00
23323;DHT22;11833;52.554;13.554;2023-05-07T10:28:45;17.00;72.90
23323;DHT22;11833;52.554;13.554;2023-05-07T10:34:00;17.30;72.10
23323;DHT22;11833;52.554;13.554;2023-05-07T10:36:28;17.60;71.80
23323;DHT22;11833;52.554;13.554;2023-05-07T10:38:55;18.10;68.90
23323;DHT22;11833;52.554;13.554;2023-05-07T10:41:21;18.40;67.30
23323;DHT22;11833;52.554;13.554;2023-05-07T10:43:47;18.40;65.90
23323;DHT22;11833;52.554;13.554;2023-05-07T10:46:20;18.40;64.40
23323;DHT22;11833;52.554;13.554;2023-05-07T10:51:29;18.90;62.30
23323;DHT22;11833;52.554;13.554;2023-05-07T10:54:24;18.90;62.60
23323;DHT22;11833;52.554;13.554;2023-05-07T10:56:50;19.00;62.10
23323;DHT22;11833;52.554;13.554;2023-05-07T11:02:02;19.00;61.30
23323;DHT22;11833;52.554;13.554;2023-05-07T11:04:31;19.10;61.10
23323;DHT22;11833;52.554;13.554;2023-05-07T11:15:12;18.80;60.90
23323;DHT22;11833;52.554;13.554;2023-05-07T11:17:58;18.70;61.00
23323;DHT22;11833;52.554;13.554;2023-05-07T11:26:02;18.90;60.30
23323;DHT22;11833;52.554;13.554;2023-05-07T11:28:30;18.90;60.60
23323;DHT22;11833;52.554;13.554;2023-05-07T11:30:57;18.90;60.70
23323;DHT22;11833;52.554;13.554;2023-05-07T11:33:23;19.00;60.90
23323;DHT22;11833;52.554;13.554;2023-05-07T11:35:55;19.30;60.80
23323;DHT22;11833;52.554;13.554;2023-05-07T11:38:21;20.10;59.20
23323;DHT22;11833;52.554;13.554;2023-05-07T11:40:56;20.60;57.60
23323;DHT22;11833;52.554;13.554;2023-05-07T11:43:23;20.90;56.40
23323;DHT22;11833;52.554;13.554;2023-05-07T11:45:49;21.00;56.00
23323;DHT22;11833;52.554;13.554;2023-05-07T11:48:16;21.20;55.60
23323;DHT22;11833;52.554;13.554;2023-05-07T11:51:03;21.40;54.80
23323;DHT22;11833;52.554;13.554;2023-05-07T11:53:41;21.30;53.80
23323;DHT22;11833;52.554;13.554;2023-05-07T11:56:09;21.50;54.20
23323;DHT22;11833;52.554;13.554;2023-05-07T11:58:40;21.40;53.10
23323;DHT22;11833;52.554;13.554;2023-05-07T12:01:11;21.10;53.20
23323;DHT22;11833;52.554;13.554;2023-05-07T12:03:40;21.40;53.10
23323;DHT22;11833;52.554;13.554;2023-05-07T12:06:15;21.50;53.00
23323;DHT22;11833;52.554;13.554;2023-05-07T12:08:42;21.80;52.30
23323;DHT22;11833;52.554;13.554;2023-05-07T12:11:14;22.20;51.60
23323;DHT22;11833;52.554;13.554;2023-05-07T12:13:42;22.30;51.20
23323;DHT22;11833;52.554;13.554;2023-05-07T12:16:08;22.50;48.70
23323;DHT22;11833;52.554;13.554;2023-05-07T12:18:35;22.90;48.90
23323;DHT22;11833;52.554;13.554;2023-05-07T12:21:02;23.20;47.80
23323;DHT22;11833;52.554;13.554;2023-05-07T12:23:30;23.40;47.30
23323;DHT22;11833;52.554;13.554;2023-05-07T12:25:55;23.10;47.10
23323;DHT22;11833;52.554;13.554;2023-05-07T12:28:21;23.30;47.70
23323;DHT22;11833;52.554;13.554;2023-05-07T12:30:48;23.40;46.60
23323;DHT22;11833;52.554;13.554;2023-05-07T12:33:23;23.70;46.40
23323;DHT22;11833;52.554;13.554;2023-05-07T12:35:50;24.30;46.10
23323;DHT22;11833;52.554;13.554;2023-05-07T12:38:17;24.50;44.40
23323;DHT22;11833;52.554;13.554;2023-05-07T12:40:46;24.20;45.20
23323;DHT22;11833;52.554;13.554;2023-05-07T12:45:50;24.40;43.90
23323;DHT22;11833;52.554;13.554;2023-05-07T12:48:17;24.80;43.30
23323;DHT22;11833;52.554;13.554;2023-05-07T12:50:43;25.10;42.60
23323;DHT22;11833;52.554;13.554;2023-05-07T12:53:10;25.30;42.40
23323;DHT22;11833;52.554;13.554;2023-05-07T12:55:46;25.60;42.00
23323;DHT22;11833;52.554;13.554;2023-05-07T12:58:21;25.90;41.50
23323;DHT22;11833;52.554;13.554;2023-05-07T13:00:51;26.20;41.50
23323;DHT22;11833;52.554;13.554;2023-05-07T13:03:26;25.80;40.60
23323;DHT22;11833;52.554;13.554;2023-05-07T13:06:08;25.30;41.90
23323;DHT22;11833;52.554;13.554;2023-05-07T13:08:40;25.40;41.50
23323;DHT22;11833;52.554;13.554;2023-05-07T13:11:09;25.90;41.10
23323;DHT22;11833;52.554;13.554;2023-05-07T13:13:37;26.10;40.10
23323;DHT22;11833;52.554;13.554;2023-05-07T13:16:06;26.50;40.30
23323;DHT22;11833;52.554;13.554;2023-05-07T13:18:34;26.90;39.80
23323;DHT22;11833;52.554;13.554;2023-05-07T13:21:01;26.90;39.70
23323;DHT22;11833;52.554;13.554;2023-05-07T13:23:28;26.90;39.70
23323;DHT22;11833;52.554;13.554;2023-05-07T13:25:54;26.90;39.20
23323;DHT22;11833;52.554;13.554;2023-05-07T13:28:21;26.70;39.00
23323;DHT22;11833;52.554;13.554;2023-05-07T13:30:47;26.60;39.60
23323;DHT22;11833;52.554;13.554;2023-05-07T13:33:13;27.10;39.10
23323;DHT22;11833;52.554;13.554;2023-05-07T13:35:40;27.20;38.20
23323;DHT22;11833;52.554;13.554;2023-05-07T13:38:07;26.60;38.40
23323;DHT22;11833;52.554;13.554;2023-05-07T13:40:33;25.70;39.00
23323;DHT22;11833;52.554;13.554;2023-05-07T13:42:59;25.30;39.50
23323;DHT22;11833;52.554;13.554;2023-05-07T13:45:30;25.40;40.00
23323;DHT22;11833;52.554;13.554;2023-05-07T13:47:56;26.10;38.80
23323;DHT22;11833;52.554;13.554;2023-05-07T13:50:22;26.30;38.30
23323;DHT22;11833;52.554;13.554;2023-05-07T13:52:48;26.60;38.20
23323;DHT22;11833;52.554;13.554;2023-05-07T13:55:19;27.10;37.50
23323;DHT22;11833;52.554;13.554;2023-05-07T13:57:46;27.30;37.10
23323;DHT22;11833;52.554;13.554;2023-05-07T14:00:13;27.70;37.00
23323;DHT22;11833;52.554;13.554;2023-05-07T14:02:40;27.20;36.70
23323;DHT22;11833;52.554;13.554;2023-05-07T14:05:06;26.40;37.70
23323;DHT22;11833;52.554;13.554;2023-05-07T14:07:32;25.10;38.80
23323;DHT22;11833;52.554;13.554;2023-05-07T14:09:59;24.50;40.30
23323;DHT22;11833;52.554;13.554;2023-05-07T14:12:25;24.20;41.40
23323;DHT22;11833;52.554;13.554;2023-05-07T14:14:50;24.40;42.20
23323;DHT22;11833;52.554;13.554;2023-05-07T14:17:17;24.20;41.10
23323;DHT22;11833;52.554;13.554;2023-05-07T14:19:43;23.80;41.80
23323;DHT22;11833;52.554;13.554;2023-05-07T14:22:09;23.60;42.80
23323;DHT22;11833;52.554;13.554;2023-05-07T14:24:35;23.30;42.90
23323;DHT22;11833;52.554;13.554;2023-05-07T14:27:01;23.20;43.30
23323;DHT22;11833;52.554;13.554;2023-05-07T14:29:27;23.40;43.50
23323;DHT22;11833;52.554;13.554;2023-05-07T14:31:53;23.30;43.50
23323;DHT22;11833;52.554;13.554;2023-05-07T14:34:19;23.20;43.80
23323;DHT22;11833;52.554;13.554;2023-05-07T14:36:44;23.40;44.30
23323;DHT22;11833;52.554;13.554;2023-05-07T14:39:10;24.40;43.00
23323;DHT22;11833;52.554;13.554;2023-05-07T14:41:36;25.20;41.60
23323;DHT22;11833;52.554;13.554;2023-05-07T14:44:01;25.90;40.30
23323;DHT22;11833;52.554;13.554;2023-05-07T14:46:29;25.70;39.70
23323;DHT22;11833;52.554;13.554;2023-05-07T14:48:56;26.20;39.70
23323;DHT22;11833;52.554;13.554;2023-05-07T14:51:22;26.20;39.50
23323;DHT22;11833;52.554;13.554;2023-05-07T14:53:50;26.20;39.50
23323;DHT22;11833;52.554;13.554;2023-05-07T14:56:16;26.60;38.80
23323;DHT22;11833;52.554;13.554;2023-05-07T14:58:43;26.60;38.40
23323;DHT22;11833;52.554;13.554;2023-05-07T15:01:09;26.00;38.60
23323;DHT22;11833;52.554;13.554;2023-05-07T15:03:35;26.20;39.50
23323;DHT22;11833;52.554;13.554;2023-05-07T15:06:02;26.70;38.80
23323;DHT22;11833;52.554;13.554;2023-05-07T15:08:28;26.30;38.40
23323;DHT22;11833;52.554;13.554;2023-05-07T15:10:54;25.30;39.60
23323;DHT22;11833;52.554;13.554;2023-05-07T15:13:20;25.10;40.90
23323;DHT22;11833;52.554;13.554;2023-05-07T15:15:46;25.30;40.10
23323;DHT22;11833;52.554;13.554;2023-05-07T15:18:14;25.10;40.60
23323;DHT22;11833;52.554;13.554;2023-05-07T15:20:41;25.50;40.30
23323;DHT22;11833;52.554;13.554;2023-05-07T15:23:08;25.50;40.60
23323;DHT22;11833;52.554;13.554;2023-05-07T15:25:40;25.10;39.70
23323;DHT22;11833;52.554;13.554;2023-05-07T15:28:06;24.80;41.40
23323;DHT22;11833;52.554;13.554;2023-05-07T15:30:32;25.30;40.70
23323;DHT22;11833;52.554;13.554;2023-05-07T15:32:58;25.90;39.50
23323;DHT22;11833;52.554;13.554;2023-05-07T15:35:25;26.60;38.50
23323;DHT22;11833;52.554;13.554;2023-05-07T15:37:51;26.60;38.20
23323;DHT22;11833;52.554;13.554;2023-05-07T15:40:20;26.40;38.80
23323;DHT22;11833;52.554;13.554;2023-05-07T15:42:46;26.10;39.20